Time;durP1;ratioP1;P1;durP2;ratioP2;P2;SDS_P1;SDS_P2;PMS_P1;PMS_P2;Temp;Humidity;BMP_temperature;BMP_pressure;BME280_temperature;BME280_humidity;BME280_pressure;Samples;Min_cycle;Max_cycle;Signal;HPM_P1;HPM_P2
2021/11/08 00:01:45;;;;;;;11.82;8.93;;;;;;;-140.79;100.00;63287.88;5045165;28;20415;-62
2021/11/08 00:04:11;;;;;;;12.13;8.90;;;;;;;-140.79;100.00;63287.88;5044443;28;20052;-63
2021/11/08 00:06:37;;;;;;;11.63;9.13;;;;;;;-140.79;100.00;63287.88;5045054;28;20029;-62
2021/11/08 00:09:03;;;;;;;10.88;8.88;;;;;;;-140.79;100.00;63287.88;5045372;28;20033;-62
2021/11/08 00:11:29;;;;;;;12.75;8.93;;;;;;;-140.79;100.00;63287.88;5027222;28;20102;-62
2021/11/08 00:13:55;;;;;;;12.13;8.50;;;;;;;-140.79;100.00;63287.88;5044401;28;20527;-63
2021/11/08 00:21:48;;;;;;;13.13;9.30;;;;;;;-140.79;100.00;63287.88;5044730;28;20098;-63
2021/11/08 00:24:16;;;;;;;13.52;9.35;;;;;;;-140.79;100.00;63287.88;5042656;28;20033;-62
2021/11/08 00:26:42;;;;;;;14.20;9.00;;;;;;;-140.79;100.00;63287.88;5027162;28;20418;-63
2021/11/08 00:29:08;;;;;;;12.63;9.10;;;;;;;-140.79;100.00;63287.88;5044579;28;20033;-62
2021/11/08 00:31:33;;;;;;;12.65;9.05;;;;;;;-140.79;100.00;63287.88;5043347;28;20036;-62
2021/11/08 00:33:59;;;;;;;11.98;8.07;;;;;;;-140.79;100.00;63287.88;5044705;28;20074;-63
2021/11/08 00:36:25;;;;;;;11.73;8.98;;;;;;;-140.79;100.00;63287.88;5044533;28;20082;-63
2021/11/08 00:38:50;;;;;;;12.82;9.10;;;;;;;-140.79;100.00;63287.88;5043194;28;20029;-63
2021/11/08 00:41:16;;;;;;;12.40;9.18;;;;;;;-140.79;100.00;63287.88;5044537;28;20049;-63
2021/11/08 00:43:41;;;;;;;12.27;8.93;;;;;;;-140.79;100.00;63287.88;5044451;28;20474;-63
2021/11/08 00:46:08;;;;;;;11.40;9.25;;;;;;;-140.79;100.00;63287.88;5026376;28;20021;-63
2021/11/08 00:48:35;;;;;;;12.70;9.05;;;;;;;-140.79;100.00;63287.88;5044607;28;20025;-63
2021/11/08 00:51:01;;;;;;;13.30;8.93;;;;;;;-140.79;100.00;63287.88;5026792;28;20059;-63
2021/11/08 00:53:27;;;;;;;12.52;9.57;;;;;;;-140.79;100.00;63287.88;5044290;28;20021;-63
2021/11/08 00:55:54;;;;;;;12.68;8.93;;;;;;;-140.79;100.00;63287.88;5026501;28;20047;-63
2021/11/08 00:58:28;;;;;;;10.70;8.73;;;;;;;-140.79;100.00;63287.88;5026683;28;20040;-63
2021/11/08 01:03:29;;;;;;;11.20;8.75;;;;;;;-140.79;100.00;63287.88;5091920;22;20057;-66
2021/11/08 01:05:55;;;;;;;12.13;8.90;;;;;;;-140.79;100.00;63287.88;5064080;28;20037;-66
2021/11/08 01:08:20;;;;;;;12.98;9.45;;;;;;;-140.79;100.00;63287.88;5064468;28;20468;-66
2021/11/08 01:10:46;;;;;;;11.65;9.00;;;;;;;-140.79;100.00;63287.88;5064415;28;20035;-66
2021/11/08 01:13:11;;;;;;;11.95;9.05;;;;;;;-140.79;100.00;63287.88;5063863;28;20021;-66
2021/11/08 01:15:37;;;;;;;14.10;9.43;;;;;;;-140.79;100.00;63287.88;5064216;28;20083;-66
2021/11/08 01:18:02;;;;;;;12.05;8.80;;;;;;;-140.79;100.00;63287.88;5064439;28;20017;-66
2021/11/08 01:20:33;;;;;;;12.52;9.02;;;;;;;-140.79;100.00;63287.88;5046417;28;20024;-66
2021/11/08 01:23:01;;;;;;;10.18;8.63;;;;;;;-140.79;100.00;63287.88;5063848;28;20024;-66
2021/11/08 01:25:26;;;;;;;12.18;9.05;;;;;;;-140.79;100.00;63287.88;5067620;28;20598;-66
2021/11/08 01:27:55;;;;;;;11.63;8.90;;;;;;;-140.79;100.00;63287.88;5050110;28;20036;-66
2021/11/08 01:30:23;;;;;;;11.77;8.50;;;;;;;-140.79;100.00;63287.88;5067905;28;20634;-66
2021/11/08 01:33:08;;;;;;;13.48;9.13;;;;;;;-140.79;100.00;63287.88;5050278;28;20019;-67
2021/11/08 01:35:39;;;;;;;12.80;9.27;;;;;;;-140.79;100.00;63287.88;5067656;28;20024;-67
2021/11/08 01:38:08;;;;;;;11.73;9.02;;;;;;;-140.79;100.00;63287.88;5067802;28;20717;-67
2021/11/08 01:40:34;;;;;;;11.65;8.90;;;;;;;-140.79;100.00;63287.88;5067498;28;20031;-67
2021/11/08 01:43:00;;;;;;;12.15;9.38;;;;;;;-140.79;100.00;63287.88;5067060;28;20032;-67
2021/11/08 01:45:25;;;;;;;12.30;8.90;;;;;;;-140.79;100.00;63287.88;5049191;28;20097;-67
2021/11/08 01:47:51;;;;;;;11.15;9.15;;;;;;;-140.79;100.00;63287.88;5049615;28;20116;-66
2021/11/08 01:50:16;;;;;;;11.70;9.23;;;;;;;-140.79;100.00;63287.88;5049646;28;20528;-67
2021/11/08 01:52:42;;;;;;;12.85;9.13;;;;;;;-140.79;100.00;63287.88;5049306;28;20021;-67
2021/11/08 01:55:07;;;;;;;11.90;9.43;;;;;;;-140.79;100.00;63287.88;5067565;28;20082;-67
2021/11/08 01:57:33;;;;;;;11.35;8.82;;;;;;;-140.79;100.00;63287.88;5067407;28;20032;-67
2021/11/08 02:00:00;;;;;;;11.68;8.80;;;;;;;-140.79;100.00;63287.88;5067965;28;20546;-67
2021/11/08 02:02:26;;;;;;;12.93;8.70;;;;;;;-140.79;100.00;63287.88;5049514;28;20458;-66
2021/11/08 02:04:51;;;;;;;11.75;9.00;;;;;;;-140.79;100.00;63287.88;5067029;28;20039;-66
2021/11/08 02:07:17;;;;;;;12.98;8.85;;;;;;;-140.79;100.00;63287.88;5067356;28;20032;-65
2021/11/08 02:09:42;;;;;;;11.63;9.10;;;;;;;-140.79;100.00;63287.88;5067316;28;20028;-66
2021/11/08 02:12:11;;;;;;;11.20;8.85;;;;;;;-140.79;100.00;63287.88;5067152;28;20032;-67
2021/11/08 02:14:39;;;;;;;12.80;9.18;;;;;;;-140.79;100.00;63287.88;5066099;28;20030;-66
2021/11/08 02:17:04;;;;;;;11.15;8.75;;;;;;;-140.79;100.00;63287.88;5066627;28;20032;-66
2021/11/08 02:19:30;;;;;;;13.38;8.80;;;;;;;-140.79;100.00;63287.88;5066701;28;20024;-67
2021/11/08 02:21:56;;;;;;;11.57;8.75;;;;;;;-140.79;100.00;63287.88;5066673;28;20021;-67
2021/11/08 02:24:25;;;;;;;12.27;8.85;;;;;;;-140.79;100.00;63287.88;5048435;28;20090;-67
2021/11/08 02:26:50;;;;;;;11.40;8.73;;;;;;;-140.79;100.00;63287.88;5066503;28;20474;-67
2021/11/08 02:29:16;;;;;;;11.50;8.80;;;;;;;-140.79;100.00;63287.88;5066720;28;20036;-66
2021/11/08 02:31:42;;;;;;;11.88;9.18;;;;;;;-140.79;100.00;63287.88;5032272;28;20093;-66
2021/11/08 02:34:07;;;;;;;11.52;8.50;;;;;;;-140.79;100.00;63287.88;5066288;28;20020;-67
2021/11/08 02:36:34;;;;;;;11.45;8.40;;;;;;;-140.79;100.00;63287.88;5064953;28;20035;-67
2021/11/08 02:39:01;;;;;;;11.65;8.85;;;;;;;-140.79;100.00;63287.88;5066512;28;20020;-67
2021/11/08 02:41:27;;;;;;;11.70;8.55;;;;;;;-140.79;100.00;63287.88;5066476;28;20028;-67
2021/11/08 02:43:53;;;;;;;12.30;8.77;;;;;;;-140.79;100.00;63287.88;5031196;28;20113;-67
2021/11/08 02:46:24;;;;;;;11.35;8.38;;;;;;;-140.79;100.00;63287.88;5066396;28;20031;-67
2021/11/08 02:48:51;;;;;;;12.13;8.88;;;;;;;-140.79;100.00;63287.88;5065622;28;20024;-66
2021/11/08 02:51:23;;;;;;;11.70;8.63;;;;;;;-140.79;100.00;63287.88;5066387;28;20028;-67
2021/11/08 02:53:50;;;;;;;12.23;8.82;;;;;;;-140.79;100.00;63287.88;5065650;28;20082;-67
2021/11/08 02:56:16;;;;;;;11.20;8.82;;;;;;;-140.79;100.00;63287.88;5048371;28;20024;-67
2021/11/08 02:58:42;;;;;;;11.68;9.30;;;;;;;-140.79;100.00;63287.88;5065833;28;20478;-67
2021/11/08 03:01:08;;;;;;;13.52;9.15;;;;;;;-140.79;100.00;63287.88;5065885;28;20040;-67
2021/11/08 03:03:38;;;;;;;11.73;8.98;;;;;;;-140.79;100.00;63287.88;5065322;28;20075;-67
2021/11/08 03:06:12;;;;;;;11.95;8.15;;;;;;;-140.79;100.00;63287.88;5048497;28;20052;-67
2021/11/08 03:08:37;;;;;;;10.98;8.15;;;;;;;-140.79;100.00;63287.88;5065483;28;20028;-66
2021/11/08 03:11:04;;;;;;;13.10;8.57;;;;;;;-140.79;100.00;63287.88;5047742;28;20082;-67
2021/11/08 03:13:33;;;;;;;11.52;8.85;;;;;;;-140.79;100.00;63287.88;5065232;28;20040;-67
2021/11/08 03:16:22;;;;;;;12.77;8.80;;;;;;;-140.79;100.00;63287.88;5048147;28;20032;-67
2021/11/08 03:18:54;;;;;;;13.32;8.63;;;;;;;-140.79;100.00;63287.88;5065677;28;20058;-67
2021/11/08 03:21:21;;;;;;;13.18;8.80;;;;;;;-140.79;100.00;63287.88;5049190;28;20073;-66
2021/11/08 03:23:49;;;;;;;12.13;8.60;;;;;;;-140.79;100.00;63287.88;5065357;28;20509;-66
2021/11/08 03:28:40;;;;;;;11.98;8.65;;;;;;;-140.79;100.00;63287.88;5047161;28;20021;-66
2021/11/08 03:31:08;;;;;;;12.50;9.05;;;;;;;-140.79;100.00;63287.88;5065520;28;20418;-67
2021/11/08 03:33:34;;;;;;;13.23;8.90;;;;;;;-140.79;100.00;63287.88;5064968;28;20024;-67
2021/11/08 03:36:00;;;;;;;10.70;8.60;;;;;;;-140.79;100.00;63287.88;5063786;28;20017;-67
2021/11/08 03:38:26;;;;;;;12.43;8.82;;;;;;;-140.79;100.00;63287.88;5064959;28;20028;-67
2021/11/08 03:40:51;;;;;;;11.35;8.18;;;;;;;-140.79;100.00;63287.88;5065183;28;20456;-67
2021/11/08 03:43:18;;;;;;;12.55;8.85;;;;;;;-140.79;100.00;63287.88;5064860;28;20140;-67
2021/11/08 03:45:44;;;;;;;12.07;8.98;;;;;;;-140.79;100.00;63287.88;5047119;28;20025;-67
2021/11/08 03:48:10;;;;;;;12.45;8.75;;;;;;;-140.79;100.00;63287.88;5064351;28;20526;-67
2021/11/08 03:50:36;;;;;;;12.40;9.07;;;;;;;-140.79;100.00;63287.88;5047131;28;20111;-67
2021/11/08 03:53:02;;;;;;;11.40;8.13;;;;;;;-140.79;100.00;63287.88;5064857;28;20027;-67
2021/11/08 03:55:27;;;;;;;12.25;9.02;;;;;;;-140.79;100.00;63287.88;5064910;28;20021;-67
2021/11/08 03:57:53;;;;;;;11.43;8.50;;;;;;;-140.79;100.00;63287.88;5064675;28;20020;-67
2021/11/08 04:00:19;;;;;;;11.48;8.38;;;;;;;-140.79;100.00;63287.88;5030405;28;20035;-67
2021/11/08 04:02:45;;;;;;;11.20;8.43;;;;;;;-140.79;100.00;63287.88;5046557;28;20553;-67
2021/11/08 04:05:11;;;;;;;12.15;8.18;;;;;;;-140.79;100.00;63287.88;5030372;28;20024;-67
2021/11/08 04:07:37;;;;;;;10.45;8.05;;;;;;;-140.79;100.00;63287.88;5064634;28;20036;-67
2021/11/08 04:10:04;;;;;;;10.98;8.50;;;;;;;-140.79;100.00;63287.88;5064743;28;20089;-67
2021/11/08 04:12:30;;;;;;;11.05;8.70;;;;;;;-140.79;100.00;63287.88;5064407;28;20028;-67
2021/11/08 04:14:56;;;;;;;10.85;8.23;;;;;;;-140.79;100.00;63287.88;5064319;28;20028;-67
2021/11/08 04:17:24;;;;;;;11.60;8.43;;;;;;;-140.79;100.00;63287.88;5064829;28;20028;-67
2021/11/08 04:19:50;;;;;;;10.70;8.32;;;;;;;-140.79;100.00;63287.88;5047049;28;20031;-67
2021/11/08 04:22:16;;;;;;;10.13;8.00;;;;;;;-140.79;100.00;63287.88;5063176;28;20029;-67
2021/11/08 04:24:47;;;;;;;11.20;8.20;;;;;;;-140.79;100.00;63287.88;5064210;28;20036;-67
2021/11/08 04:27:13;;;;;;;10.93;8.30;;;;;;;-140.79;100.00;63287.88;5064423;28;20040;-66
2021/11/08 04:29:38;;;;;;;11.30;8.60;;;;;;;-140.79;100.00;63287.88;5064474;28;20024;-67
2021/11/08 04:32:04;;;;;;;11.65;8.23;;;;;;;-140.79;100.00;63287.88;5046352;28;20028;-67
2021/11/08 04:34:42;;;;;;;10.77;7.93;;;;;;;-140.79;100.00;63287.88;5064196;28;20489;-67
2021/11/08 04:37:28;;;;;;;11.57;8.20;;;;;;;-140.79;100.00;63287.88;5064076;28;20479;-66
2021/11/08 04:42:51;;;;;;;12.23;8.55;;;;;;;-140.79;100.00;63287.88;5044178;28;20051;-67
2021/11/08 04:50:49;;;;;;;11.65;8.40;;;;;;;-140.79;100.00;63287.88;5043993;28;20089;-67
2021/11/08 05:28:06;;;;;;;10.88;8.05;;;;;;;-140.79;100.00;63287.88;5047745;28;20096;-67
2021/11/08 05:30:31;;;;;;;10.90;8.38;;;;;;;-140.79;100.00;63287.88;5047594;28;20063;-67
2021/11/08 05:32:57;;;;;;;10.45;7.80;;;;;;;-140.79;100.00;63287.88;5028624;28;20031;-66
2021/11/08 05:35:22;;;;;;;11.32;8.43;;;;;;;-140.79;100.00;63287.88;5051530;28;20048;-67
2021/11/08 05:37:48;;;;;;;10.57;8.25;;;;;;;-140.79;100.00;63287.88;5031434;28;20028;-67
2021/11/08 05:40:22;;;;;;;9.98;7.57;;;;;;;-140.79;100.00;63287.88;5047506;28;20032;-67
2021/11/08 05:42:48;;;;;;;11.70;7.93;;;;;;;-140.79;100.00;63287.88;5029680;28;20032;-67
2021/11/08 05:45:15;;;;;;;12.65;8.52;;;;;;;-140.79;100.00;63287.88;5047219;28;20025;-67
2021/11/08 05:47:41;;;;;;;11.23;8.43;;;;;;;-140.79;100.00;63287.88;5051370;28;20121;-66
2021/11/08 05:50:07;;;;;;;11.93;8.65;;;;;;;-140.79;100.00;63287.88;5048507;28;20029;-63
2021/11/08 05:52:32;;;;;;;11.82;7.95;;;;;;;-140.79;100.00;63287.88;5066822;28;20067;-65
2021/11/08 05:54:58;;;;;;;10.07;7.30;;;;;;;-140.79;100.00;63287.88;5065970;28;20059;-69
2021/11/08 06:51:40;;;;;;;9.18;7.20;;;;;;;-140.79;100.00;63287.88;5063823;28;20123;-71
2021/11/08 06:54:06;;;;;;;9.95;7.53;;;;;;;-140.79;100.00;63287.88;5063678;28;20040;-70
2021/11/08 06:57:35;;;;;;;10.15;7.38;;;;;;;-140.79;100.00;63287.88;5064259;28;20510;-71
2021/11/08 06:59:27;;;;;;;9.80;7.72;;;;;;;-140.79;100.00;63287.88;5059627;28;20048;-70
2021/11/08 07:01:53;;;;;;;10.23;7.38;;;;;;;-140.79;100.00;63287.88;5046768;28;20490;-71
2021/11/08 07:04:19;;;;;;;11.07;7.85;;;;;;;-140.79;100.00;63287.88;5046661;28;20053;-72
2021/11/08 07:06:45;;;;;;;10.55;7.82;;;;;;;-140.79;100.00;63287.88;5064313;28;20027;-71
2021/11/08 07:09:11;;;;;;;11.38;7.18;;;;;;;-140.79;100.00;63287.88;5065301;28;20450;-71
2021/11/08 07:11:38;;;;;;;10.90;7.65;;;;;;;-140.79;100.00;63287.88;5064332;28;20029;-71
2021/11/08 07:14:04;;;;;;;9.60;7.15;;;;;;;-140.79;100.00;63287.88;5065103;28;20081;-70
2021/11/08 07:16:29;;;;;;;10.50;7.50;;;;;;;-140.79;100.00;63287.88;5064504;28;20614;-71
2021/11/08 07:18:55;;;;;;;10.25;8.00;;;;;;;-140.79;100.00;63287.88;5064587;28;20031;-70
2021/11/08 07:21:20;;;;;;;10.93;8.15;;;;;;;-140.79;100.00;63287.88;5045565;28;20060;-70
2021/11/08 07:23:46;;;;;;;11.48;7.95;;;;;;;-140.79;100.00;63287.88;5064209;28;20561;-68
2021/11/08 07:26:12;;;;;;;10.77;7.57;;;;;;;-140.79;100.00;63287.88;5062799;28;20031;-67
2021/11/08 07:28:38;;;;;;;9.25;7.35;;;;;;;-140.79;100.00;63287.88;5064705;28;20032;-68
2021/11/08 07:31:03;;;;;;;10.18;7.35;;;;;;;-140.79;100.00;63287.88;5042769;28;20432;-69
2021/11/08 07:33:31;;;;;;;10.60;7.45;;;;;;;-140.79;100.00;63287.88;5059625;28;20174;-69
2021/11/08 07:35:57;;;;;;;11.60;7.70;;;;;;;-140.79;100.00;63287.88;5045861;28;20024;-69
2021/11/08 07:38:22;;;;;;;9.60;7.35;;;;;;;-140.79;100.00;63287.88;5044060;28;20029;-69
2021/11/08 07:40:48;;;;;;;9.55;7.65;;;;;;;-140.79;100.00;63287.88;5063316;28;20531;-69
2021/11/08 07:43:13;;;;;;;11.85;7.32;;;;;;;-140.79;100.00;63287.88;5045673;28;20025;-70
2021/11/08 07:45:39;;;;;;;10.63;7.07;;;;;;;-140.79;100.00;63287.88;5045109;28;20050;-70
2021/11/08 07:48:06;;;;;;;10.50;7.60;;;;;;;-140.79;100.00;63287.88;5063759;28;20051;-70
2021/11/08 07:50:31;;;;;;;9.43;7.57;;;;;;;-140.79;100.00;63287.88;5061147;28;20034;-70
2021/11/08 07:52:57;;;;;;;10.38;7.70;;;;;;;-140.79;100.00;63287.88;5063066;28;20016;-69
2021/11/08 07:55:23;;;;;;;11.05;7.00;;;;;;;-140.79;100.00;63287.88;5063537;28;20028;-69
2021/11/08 07:57:48;;;;;;;9.77;7.55;;;;;;;-140.79;100.00;63287.88;5064079;28;20120;-69
2021/11/08 08:00:14;;;;;;;10.48;7.38;;;;;;;-140.79;100.00;63287.88;5063379;28;20032;-69
2021/11/08 08:02:40;;;;;;;11.13;7.68;;;;;;;-140.79;100.00;63287.88;5063726;28;20045;-70
2021/11/08 08:05:06;;;;;;;10.57;7.20;;;;;;;-140.79;100.00;63287.88;5046149;28;20328;-69
2021/11/08 08:07:31;;;;;;;10.48;7.05;;;;;;;-140.79;100.00;63287.88;5064007;28;20027;-70
2021/11/08 08:09:57;;;;;;;10.20;7.63;;;;;;;-140.79;100.00;63287.88;5060680;28;20758;-69
2021/11/08 08:12:23;;;;;;;10.90;7.65;;;;;;;-140.79;100.00;63287.88;5063768;28;20020;-69
2021/11/08 08:14:48;;;;;;;9.82;7.05;;;;;;;-140.79;100.00;63287.88;5063470;28;20071;-68
2021/11/08 08:17:13;;;;;;;10.80;7.40;;;;;;;-140.79;100.00;63287.88;5017944;28;20052;-69
2021/11/08 08:19:39;;;;;;;10.40;7.25;;;;;;;-140.79;100.00;63287.88;5056887;28;20772;-69
2021/11/08 08:22:04;;;;;;;10.50;6.88;;;;;;;-140.79;100.00;63287.88;5063799;28;20020;-68
2021/11/08 08:24:30;;;;;;;9.82;6.95;;;;;;;-140.79;100.00;63287.88;5063609;28;20115;-70
2021/11/08 08:26:56;;;;;;;10.10;7.40;;;;;;;-140.79;100.00;63287.88;5045415;28;20097;-69
2021/11/08 08:29:21;;;;;;;8.90;7.47;;;;;;;-140.79;100.00;63287.88;5044783;28;20028;-69
2021/11/08 08:31:47;;;;;;;9.73;7.50;;;;;;;-140.79;100.00;63287.88;5060847;28;20028;-69
2021/11/08 08:34:15;;;;;;;10.02;7.28;;;;;;;-140.79;100.00;63287.88;5049629;28;20025;-69
2021/11/08 08:36:40;;;;;;;10.82;7.55;;;;;;;-140.79;100.00;63287.88;5068177;28;20103;-69
2021/11/08 08:39:06;;;;;;;9.48;6.78;;;;;;;-140.79;100.00;63287.88;5050239;28;20030;-69
2021/11/08 08:41:32;;;;;;;10.23;7.78;;;;;;;-140.79;100.00;63287.88;5067414;28;20024;-68
2021/11/08 08:43:57;;;;;;;10.50;7.40;;;;;;;-140.79;100.00;63287.88;5049137;28;20347;-69
2021/11/08 08:46:36;;;;;;;9.07;6.28;;;;;;;-140.79;100.00;63287.88;5067953;28;20028;-68
2021/11/08 08:49:02;;;;;;;9.35;7.03;;;;;;;-140.79;100.00;63287.88;5068081;28;20032;-69
2021/11/08 08:51:27;;;;;;;11.30;7.32;;;;;;;-140.79;100.00;63287.88;5053845;28;20054;-69
2021/11/08 08:53:53;;;;;;;9.75;7.38;;;;;;;-140.79;100.00;63287.88;5029998;28;20487;-68
2021/11/08 08:56:19;;;;;;;9.30;7.35;;;;;;;-140.79;100.00;63287.88;5048118;28;20499;-69
2021/11/08 08:58:45;;;;;;;10.80;7.18;;;;;;;-140.79;100.00;63287.88;5066610;28;20025;-68
2021/11/08 09:01:16;;;;;;;10.65;7.30;;;;;;;-140.79;100.00;63287.88;5067890;28;20576;-68
2021/11/08 09:03:42;;;;;;;9.82;7.15;;;;;;;-140.79;100.00;63287.88;5065038;28;20036;-68
2021/11/08 09:06:08;;;;;;;10.02;7.10;;;;;;;-140.79;100.00;63287.88;5067891;28;20456;-68
2021/11/08 09:08:35;;;;;;;11.00;7.72;;;;;;;-140.79;100.00;63287.88;5067600;28;20031;-68
2021/11/08 09:11:01;;;;;;;10.93;7.35;;;;;;;-140.79;100.00;63287.88;5050064;28;20490;-70
2021/11/08 09:13:27;;;;;;;9.15;7.07;;;;;;;-140.79;100.00;63287.88;5067540;28;20028;-68
2021/11/08 09:15:54;;;;;;;8.65;6.80;;;;;;;-140.79;100.00;63287.88;5067843;28;20039;-68
2021/11/08 09:18:19;;;;;;;9.07;6.97;;;;;;;-140.79;100.00;63287.88;5047027;28;20038;-69
2021/11/08 09:20:45;;;;;;;9.45;7.43;;;;;;;-140.79;100.00;63287.88;5060531;28;20028;-68
2021/11/08 09:23:11;;;;;;;8.85;6.70;;;;;;;-140.79;100.00;63287.88;5056127;28;20036;-70
2021/11/08 09:25:37;;;;;;;11.10;7.13;;;;;;;-140.79;100.00;63287.88;5066609;28;20036;-70
2021/11/08 09:28:03;;;;;;;11.02;7.50;;;;;;;-140.79;100.00;63287.88;5066963;28;20035;-70
2021/11/08 09:30:30;;;;;;;9.45;7.10;;;;;;;-140.79;100.00;63287.88;5066657;28;20059;-69
2021/11/08 09:32:56;;;;;;;10.25;7.10;;;;;;;-140.79;100.00;63287.88;5067164;28;20028;-69
2021/11/08 09:35:22;;;;;;;10.48;7.10;;;;;;;-140.79;100.00;63287.88;5059681;28;20451;-69
2021/11/08 09:37:48;;;;;;;9.52;7.30;;;;;;;-140.79;100.00;63287.88;5066366;28;20028;-70
2021/11/08 09:40:19;;;;;;;10.05;7.22;;;;;;;-140.79;100.00;63287.88;5057765;28;20051;-70
2021/11/08 09:42:46;;;;;;;8.77;6.97;;;;;;;-140.79;100.00;63287.88;5065266;28;20466;-70
2021/11/08 09:45:12;;;;;;;9.88;7.13;;;;;;;-140.79;100.00;63287.88;5047759;28;20872;-70
2021/11/08 09:47:38;;;;;;;9.20;6.72;;;;;;;-140.79;100.00;63287.88;5066126;28;20024;-69
2021/11/08 09:50:06;;;;;;;9.18;7.05;;;;;;;-140.79;100.00;63287.88;5065765;28;20025;-71
2021/11/08 09:52:33;;;;;;;9.10;6.93;;;;;;;-140.79;100.00;63287.88;5048408;28;20029;-69
2021/11/08 09:54:59;;;;;;;10.82;7.07;;;;;;;-140.79;100.00;63287.88;5044975;28;20036;-69
2021/11/08 09:57:25;;;;;;;8.57;6.18;;;;;;;-140.79;100.00;63287.88;5047741;28;20691;-68
2021/11/08 09:59:51;;;;;;;10.05;7.30;;;;;;;-140.79;100.00;63287.88;5048500;28;20093;-70
2021/11/08 10:02:17;;;;;;;8.05;6.68;;;;;;;-140.79;100.00;63287.88;5063161;28;20506;-69
2021/11/08 10:04:43;;;;;;;9.10;6.70;;;;;;;-140.79;100.00;63287.88;5068791;28;20088;-70
2021/11/08 10:07:09;;;;;;;9.68;7.10;;;;;;;-140.79;100.00;63287.88;5058484;28;20025;-71
2021/11/08 10:09:35;;;;;;;8.98;6.97;;;;;;;-140.79;100.00;63287.88;5070902;28;20029;-75
2021/11/08 10:12:00;;;;;;;9.45;7.05;;;;;;;-140.79;100.00;63287.88;5066804;28;20509;-72
2021/11/08 10:14:26;;;;;;;11.23;6.00;;;;;;;-140.79;100.00;63287.88;5064936;28;20263;-71
2021/11/08 10:16:58;;;;;;;9.02;6.88;;;;;;;-140.79;100.00;63287.88;5066659;28;20029;-70
2021/11/08 10:19:23;;;;;;;9.50;6.65;;;;;;;-140.79;100.00;63287.88;5066174;28;20027;-69
2021/11/08 10:21:51;;;;;;;9.32;7.20;;;;;;;-140.79;100.00;63287.88;5066204;28;20418;-67
2021/11/08 10:24:25;;;;;;;11.60;7.18;;;;;;;-140.79;100.00;63287.88;5066687;28;20574;-68
2021/11/08 10:26:52;;;;;;;11.05;7.28;;;;;;;-140.79;100.00;63287.88;5066608;28;20041;-68
2021/11/08 10:29:19;;;;;;;9.57;6.47;;;;;;;-140.79;100.00;63287.88;5048863;28;20031;-67
2021/11/08 10:31:47;;;;;;;9.60;6.90;;;;;;;-140.79;100.00;63287.88;5065842;28;20090;-68
2021/11/08 10:34:13;;;;;;;10.50;7.28;;;;;;;-140.79;100.00;63287.88;5065881;28;20028;-67
2021/11/08 10:36:38;;;;;;;9.90;7.60;;;;;;;-140.79;100.00;63287.88;5065996;28;20037;-67
2021/11/08 10:39:05;;;;;;;10.25;7.22;;;;;;;-140.79;100.00;63287.88;5047972;28;20174;-70
2021/11/08 10:41:34;;;;;;;11.68;8.00;;;;;;;-140.79;100.00;63287.88;5065999;28;20028;-75
2021/11/08 10:44:08;;;;;;;9.80;7.40;;;;;;;-140.79;100.00;63287.88;5066197;28;20032;-75
2021/11/08 10:46:36;;;;;;;10.18;7.25;;;;;;;-140.79;100.00;63287.88;5048621;28;20036;-69
2021/11/08 10:49:12;;;;;;;10.68;7.38;;;;;;;-140.79;100.00;63287.88;5047797;28;20040;-71
2021/11/08 10:51:39;;;;;;;11.85;7.30;;;;;;;-140.79;100.00;63287.88;5065534;28;20546;-71
2021/11/08 10:54:07;;;;;;;10.13;7.60;;;;;;;-140.79;100.00;63287.88;5064559;28;20107;-71
2021/11/08 10:56:59;;;;;;;11.25;7.50;;;;;;;-140.79;100.00;63287.88;5063089;28;20031;-72
2021/11/08 10:59:57;;;;;;;11.40;7.43;;;;;;;-140.79;100.00;63287.88;5057226;28;20340;-69
2021/11/08 11:02:28;;;;;;;9.55;7.15;;;;;;;-140.79;100.00;63287.88;5040626;28;20028;-69
2021/11/08 11:04:58;;;;;;;10.10;6.80;;;;;;;-140.79;100.00;63287.88;5064912;28;20127;-70
2021/11/08 11:07:28;;;;;;;12.25;7.68;;;;;;;-140.79;100.00;63287.88;5047224;28;20507;-72
2021/11/08 11:10:07;;;;;;;9.30;7.30;;;;;;;-140.79;100.00;63287.88;5047377;28;20021;-71
2021/11/08 11:12:33;;;;;;;11.35;7.90;;;;;;;-140.79;100.00;63287.88;5064763;28;20036;-72
2021/11/08 11:15:13;;;;;;;12.32;7.75;;;;;;;-140.79;100.00;63287.88;5047354;28;20024;-74
2021/11/08 11:17:39;;;;;;;;;;;;;;;-140.79;100.00;63287.88;5045734;28;20037;-71
2021/11/08 11:20:12;;;;;;;11.15;7.20;;;;;;;-140.79;100.00;63287.88;5065080;28;20474;-70
2021/11/08 11:22:41;;;;;;;11.10;7.95;;;;;;;-140.79;100.00;63287.88;5063389;28;20044;-70
2021/11/08 11:25:07;;;;;;;11.83;7.83;;;;;;;-140.79;100.00;63287.88;5064585;28;20469;-70
2021/11/08 11:27:47;;;;;;;9.65;7.22;;;;;;;-140.79;100.00;63287.88;5064356;28;20090;-69
2021/11/08 11:30:22;;;;;;;10.35;7.18;;;;;;;-140.79;100.00;63287.88;5064984;28;20057;-69
2021/11/08 11:32:59;;;;;;;12.50;7.45;;;;;;;-140.79;100.00;63287.88;5064843;28;20030;-70
2021/11/08 11:35:30;;;;;;;11.13;7.95;;;;;;;-140.79;100.00;63287.88;5045037;28;20122;-69
2021/11/08 11:38:02;;;;;;;10.27;7.57;;;;;;;-140.79;100.00;63287.88;5062927;28;20055;-69
2021/11/08 11:40:31;;;;;;;11.88;8.57;;;;;;;-140.79;100.00;63287.88;5064646;28;20032;-69
2021/11/08 11:42:59;;;;;;;11.33;7.27;;;;;;;-140.79;100.00;63287.88;5046695;28;20455;-70
2021/11/08 11:45:24;;;;;;;8.65;7.00;;;;;;;-140.79;100.00;63287.88;5030758;28;20086;-69
2021/11/08 11:47:59;;;;;;;11.32;7.30;;;;;;;-140.79;100.00;63287.88;5046836;28;20028;-70
2021/11/08 11:50:25;;;;;;;10.18;7.75;;;;;;;-140.79;100.00;63287.88;5055506;28;20032;-69
2021/11/08 11:52:51;;;;;;;11.77;7.97;;;;;;;-140.79;100.00;63287.88;5064710;28;20031;-70
2021/11/08 11:55:17;;;;;;;9.80;8.02;;;;;;;-140.79;100.00;63287.88;5065331;28;20694;-70
2021/11/08 11:57:42;;;;;;;12.18;7.30;;;;;;;-140.79;100.00;63287.88;5064707;28;20430;-70
2021/11/08 12:00:08;;;;;;;11.57;7.40;;;;;;;-140.79;100.00;63287.88;5064892;28;20024;-73
2021/11/08 12:02:34;;;;;;;11.32;7.45;;;;;;;-140.79;100.00;63287.88;5063955;28;20066;-69
2021/11/08 12:05:00;;;;;;;10.65;7.60;;;;;;;-140.79;100.00;63287.88;5063865;28;20033;-69
2021/11/08 12:07:25;;;;;;;10.25;7.35;;;;;;;-140.79;100.00;63287.88;5045388;28;20427;-69
2021/11/08 12:09:51;;;;;;;12.18;8.05;;;;;;;-140.79;100.00;63287.88;5063260;28;20045;-69
2021/11/08 12:12:26;;;;;;;12.55;8.20;;;;;;;-140.79;100.00;63287.88;5064101;28;20029;-69
2021/11/08 12:14:57;;;;;;;11.85;7.38;;;;;;;-140.79;100.00;63287.88;5063374;28;20033;-70
2021/11/08 12:17:22;;;;;;;11.98;7.50;;;;;;;-140.79;100.00;63287.88;5038828;28;20022;-69
2021/11/08 12:19:48;;;;;;;11.60;7.93;;;;;;;-140.79;100.00;63287.88;5061002;28;20410;-68
2021/11/08 12:22:20;;;;;;;13.48;7.90;;;;;;;-140.79;100.00;63287.88;5064483;28;20387;-68
2021/11/08 12:25:07;;;;;;;10.40;7.75;;;;;;;-140.79;100.00;63287.88;5064652;28;20055;-69
2021/11/08 12:27:37;;;;;;;11.13;7.68;;;;;;;-140.79;100.00;63287.88;5064236;28;20498;-69
2021/11/08 12:30:12;;;;;;;11.85;7.47;;;;;;;-140.79;100.00;63287.88;5064887;28;20350;-68
2021/11/08 12:32:58;;;;;;;11.10;8.07;;;;;;;-140.79;100.00;63287.88;5064137;28;20035;-69
2021/11/08 12:35:31;;;;;;;10.13;7.50;;;;;;;-140.79;100.00;63287.88;5043328;28;20025;-68
2021/11/08 12:37:57;;;;;;;10.65;7.55;;;;;;;-140.79;100.00;63287.88;5044173;28;20035;-68
2021/11/08 12:40:27;;;;;;;10.57;7.25;;;;;;;-140.79;100.00;63287.88;5062818;28;20029;-68
2021/11/08 12:42:53;;;;;;;10.68;7.43;;;;;;;-140.79;100.00;63287.88;5040710;28;20100;-69
2021/11/08 12:45:23;;;;;;;9.75;6.60;;;;;;;-140.79;100.00;63287.88;5062225;28;20785;-69
2021/11/08 12:48:05;;;;;;;10.15;7.75;;;;;;;-140.79;100.00;63287.88;5054513;28;20562;-69
2021/11/08 12:50:43;;;;;;;10.85;7.15;;;;;;;-140.79;100.00;63287.88;5060929;28;20111;-69
2021/11/08 12:53:39;;;;;;;10.43;7.68;;;;;;;-140.79;100.00;63287.88;5059560;28;20016;-68
2021/11/08 12:56:10;;;;;;;11.57;7.28;;;;;;;-140.79;100.00;63287.88;5049273;28;20052;-69